Time;durP1;ratioP1;P1;durP2;ratioP2;P2;SDS_P1;SDS_P2;PMS_P1;PMS_P2;Temp;Humidity;BMP_temperature;BMP_pressure;BME280_temperature;BME280_humidity;BME280_pressure;Samples;Min_cycle;Max_cycle;Signal;HPM_P1;HPM_P2
2023/06/09 00:02:18;;;;;;;;;21.00;16.33;;;;;23.60;45.29;100487.22;4959336;28;46790;-74
2023/06/09 00:04:44;;;;;;;;;19.67;18.67;;;;;23.97;45.69;100552.13;4977273;28;45430;-74
2023/06/09 00:07:09;;;;;;;;;21.00;21.00;;;;;23.96;45.42;100545.88;4959931;28;45495;-74
2023/06/09 00:09:35;;;;;;;;;19.67;18.67;;;;;23.96;45.20;100539.63;4978883;28;45337;-74
2023/06/09 00:12:02;;;;;;;;;18.33;18.33;;;;;23.87;45.60;100538.34;4980348;28;46483;-74
2023/06/09 00:14:27;;;;;;;;;21.00;20.00;;;;;23.84;45.29;100530.66;4979670;28;45447;-75
2023/06/09 00:16:55;;;;;;;;;24.33;22.67;;;;;23.85;45.53;100526.91;4978631;28;45289;-74
2023/06/09 00:19:22;;;;;;;;;26.00;22.33;;;;;23.86;46.12;100533.97;4963564;28;45297;-73
2023/06/09 00:21:50;;;;;;;;;23.33;16.00;;;;;23.78;46.06;100520.75;4979566;28;45711;-74
2023/06/09 00:24:25;;;;;;;;;19.00;19.00;;;;;23.85;46.02;100533.16;4979629;28;45437;-74
2023/06/09 00:26:51;;;;;;;;;15.67;15.67;;;;;23.86;45.82;100539.41;4979661;28;47138;-74
2023/06/09 00:29:19;;;;;;;;;22.33;20.67;;;;;23.77;46.08;100524.50;4979965;28;45465;-74
2023/06/09 00:31:44;;;;;;;;;23.33;22.00;;;;;23.63;45.72;100496.81;4962450;28;46805;-73
2023/06/09 00:34:10;;;;;;;;;21.00;19.33;;;;;23.75;45.86;100523.94;4980342;28;45476;-74
2023/06/09 00:36:36;;;;;;;;;22.67;22.33;;;;;23.77;45.74;100528.06;4979547;28;45449;-75
2023/06/09 00:39:02;;;;;;;;;24.33;23.00;;;;;23.76;46.00;100529.13;4979985;28;45280;-74
2023/06/09 00:41:27;;;;;;;;;21.67;21.67;;;;;23.52;45.96;100479.41;4979448;28;45803;-72
2023/06/09 00:43:54;;;;;;;;;24.33;22.33;;;;;23.64;46.79;100498.44;4978104;28;45286;-74
2023/06/09 00:46:19;;;;;;;;;25.00;24.33;;;;;23.72;46.54;100508.94;4961967;28;45365;-74
2023/06/09 00:48:45;;;;;;;;;23.67;23.67;;;;;23.65;46.60;100497.38;4962019;28;45576;-74
2023/06/09 00:51:10;;;;;;;;;29.33;28.33;;;;;23.77;46.95;100513.66;4977608;28;47389;-74
2023/06/09 00:53:36;;;;;;;;;23.33;21.67;;;;;23.71;47.22;100510.00;4979328;28;45412;-75
2023/06/09 00:56:01;;;;;;;;;24.67;23.00;;;;;23.75;46.93;100510.34;4979593;28;45555;-74
2023/06/09 00:58:27;;;;;;;;;25.67;22.33;;;;;23.64;47.26;100488.41;4980492;28;45632;-74
2023/06/09 01:00:53;;;;;;;;;24.00;23.00;;;;;23.63;47.05;100492.19;4980021;28;46826;-74
2023/06/09 01:03:19;;;;;;;;;22.33;19.00;;;;;23.62;47.43;100497.84;4979174;28;45515;-73
2023/06/09 01:05:48;;;;;;;;;24.00;24.00;;;;;23.62;47.36;100500.53;4979041;28;45228;-75
2023/06/09 01:08:14;;;;;;;;;25.33;22.00;;;;;23.58;47.93;100496.66;4979602;28;45308;-74
2023/06/09 01:11:07;;;;;;;;;27.00;23.67;;;;;23.49;47.97;100492.63;4960668;28;46157;-74
2023/06/09 01:13:35;;;;;;;;;21.00;19.67;;;;;23.52;47.62;100506.53;4961451;28;45388;-74
2023/06/09 01:16:09;;;;;;;;;24.00;24.00;;;;;23.41;47.97;100487.53;4979069;28;45345;-74
2023/06/09 01:18:36;;;;;;;;;22.67;21.00;;;;;23.37;48.22;100489.88;4977051;28;45398;-72
2023/06/09 01:21:20;;;;;;;;;24.67;24.67;;;;;23.41;48.51;100495.66;4978624;28;46408;-73
2023/06/09 01:24:11;;;;;;;;;17.33;16.67;;;;;23.10;48.28;100448.00;4978924;28;45507;-72
2023/06/09 01:26:40;;;;;;;;;27.00;26.00;;;;;23.34;48.45;100496.59;4979657;28;45299;-74
2023/06/09 01:29:07;;;;;;;;;21.33;21.33;;;;;23.24;48.44;100477.38;4980199;28;45325;-74
2023/06/09 01:31:33;;;;;;;;;25.33;23.67;;;;;23.21;48.03;100483.25;4988451;28;45836;-74
2023/06/09 01:34:01;;;;;;;;;24.00;23.00;;;;;23.05;48.44;100462.25;4998347;28;45265;-74
2023/06/09 01:36:27;;;;;;;;;25.00;22.67;;;;;23.18;48.67;100482.91;4996677;28;45297;-74
2023/06/09 01:38:52;;;;;;;;;16.67;16.67;;;;;23.10;48.87;100481.38;4980761;28;45336;-74
2023/06/09 01:41:18;;;;;;;;;31.33;29.33;;;;;23.05;49.51;100490.19;4998268;28;45623;-74
2023/06/09 01:43:43;;;;;;;;;24.33;23.33;;;;;23.02;49.42;100484.38;4996756;28;45324;-74
2023/06/09 01:46:09;;;;;;;;;18.67;18.00;;;;;23.02;49.56;100487.09;4996996;28;46017;-74
2023/06/09 01:48:59;;;;;;;;;26.00;22.67;;;;;22.97;49.52;100485.09;4973612;28;45476;-75
2023/06/09 01:51:32;;;;;;;;;19.00;19.00;;;;;22.64;49.06;100436.78;4958585;28;45778;-73
2023/06/09 01:54:07;;;;;;;;;29.33;28.33;;;;;22.84;49.56;100471.75;4941843;28;46173;-74
2023/06/09 01:56:40;;;;;;;;;23.00;22.33;;;;;22.83;49.60;100472.81;4960241;28;45496;-74
2023/06/09 01:59:11;;;;;;;;;23.67;22.00;;;;;22.80;49.07;100464.25;4959132;28;45415;-76
2023/06/09 02:01:38;;;;;;;;;27.00;25.67;;;;;22.80;49.89;100470.50;4958586;28;46749;-74
2023/06/09 02:04:06;;;;;;;;;24.00;20.33;;;;;22.68;49.64;100448.81;4958664;28;45352;-74
2023/06/09 02:06:33;;;;;;;;;26.67;23.00;;;;;22.84;49.59;100477.19;4957629;28;45370;-74
2023/06/09 02:09:00;;;;;;;;;26.67;22.00;;;;;22.25;49.96;100391.28;4959216;28;45577;-74
2023/06/09 02:11:26;;;;;;;;;22.67;20.33;;;;;22.83;49.79;100472.00;4960131;28;46384;-73
2023/06/09 02:13:55;;;;;;;;;22.67;22.67;;;;;22.74;49.45;100461.41;4958828;28;45263;-74
2023/06/09 02:16:22;;;;;;;;;25.67;22.67;;;;;22.65;49.90;100454.69;4958630;28;45525;-75
2023/06/09 02:18:48;;;;;;;;;24.67;22.67;;;;;22.71;49.88;100463.78;4989526;28;45518;-74
2023/06/09 02:21:14;;;;;;;;;23.33;22.33;;;;;22.66;49.99;100472.59;4979484;28;47596;-73
2023/06/09 02:23:40;;;;;;;;;27.00;23.67;;;;;22.60;50.16;100453.69;4997780;28;45255;-74
2023/06/09 02:26:06;;;;;;;;;25.33;24.67;;;;;22.59;50.11;100462.88;4998211;28;45228;-73
2023/06/09 02:28:32;;;;;;;;;23.00;21.67;;;;;22.54;50.21;100460.88;4998168;28;45368;-73
2023/06/09 02:30:58;;;;;;;;;21.00;19.00;;;;;22.54;50.03;100460.06;4996156;28;45916;-72
2023/06/09 02:33:24;;;;;;;;;20.33;20.33;;;;;22.25;50.02;100404.81;4997266;28;48615;-74
2023/06/09 02:35:49;;;;;;;;;24.67;22.33;;;;;22.55;50.13;100446.28;4979509;28;45479;-74
2023/06/09 02:38:15;;;;;;;;;21.00;20.33;;;;;22.05;50.01;100376.13;4997527;28;45457;-74
2023/06/09 02:40:45;;;;;;;;;26.67;24.67;;;;;22.46;49.93;100448.50;4997415;28;46564;-74
2023/06/09 02:43:11;;;;;;;;;23.67;22.33;;;;;22.47;50.38;100449.31;4997234;28;45472;-74
2023/06/09 02:45:37;;;;;;;;;24.00;22.67;;;;;22.34;50.61;100427.81;4997321;28;45568;-74
2023/06/09 02:48:02;;;;;;;;;24.33;21.00;;;;;22.41;50.37;100450.22;4996528;28;45408;-74
2023/06/09 02:50:28;;;;;;;;;26.67;23.67;;;;;22.37;50.55;100444.44;4980074;28;48792;-73
2023/06/09 02:52:53;;;;;;;;;24.33;24.33;;;;;22.11;50.61;100387.91;4997145;28;45326;-74
2023/06/09 02:55:18;;;;;;;;;23.00;22.00;;;;;22.38;50.38;100440.66;4997311;28;45189;-74
2023/06/09 02:57:45;;;;;;;;;24.33;22.00;;;;;22.43;50.38;100438.13;4997324;28;45477;-74
2023/06/09 03:00:12;;;;;;;;;26.00;25.00;;;;;22.44;50.50;100439.75;4997168;28;46504;-74
2023/06/09 03:02:38;;;;;;;;;22.00;22.00;;;;;22.44;50.62;100444.34;4995565;28;45311;-74
2023/06/09 03:05:05;;;;;;;;;24.00;23.33;;;;;22.38;50.44;100429.00;4997066;28;45479;-74
2023/06/09 03:07:31;;;;;;;;;20.00;19.67;;;;;22.48;49.96;100450.13;4997367;28;45507;-73
2023/06/09 03:09:57;;;;;;;;;32.33;27.00;;;;;22.21;50.23;100400.88;4996639;28;46260;-74
2023/06/09 03:12:22;;;;;;;;;26.67;25.67;;;;;22.32;50.49;100435.34;4996950;28;45311;-73
2023/06/09 03:14:48;;;;;;;;;21.00;21.00;;;;;22.32;50.68;100436.16;4997016;28;45278;-73
2023/06/09 03:17:13;;;;;;;;;20.33;20.33;;;;;22.37;50.75;100459.84;4993281;28;45547;-72
2023/06/09 03:19:39;;;;;;;;;25.67;25.67;;;;;22.26;50.80;100436.25;4978270;28;46356;-75
2023/06/09 03:22:05;;;;;;;;;20.33;20.00;;;;;22.27;50.78;100444.16;4977982;28;45355;-75
2023/06/09 03:24:33;;;;;;;;;25.67;22.33;;;;;22.34;50.65;100454.91;4977232;28;45476;-75
2023/06/09 03:26:58;;;;;;;;;18.67;18.33;;;;;22.22;50.54;100440.44;4959678;28;45545;-74
2023/06/09 03:29:24;;;;;;;;;21.33;19.67;;;;;22.25;51.20;100462.53;4975617;28;47463;-75
2023/06/09 03:31:49;;;;;;;;;23.33;20.67;;;;;22.18;51.05;100445.50;4977292;28;45500;-75
2023/06/09 03:34:14;;;;;;;;;23.67;23.67;;;;;22.08;51.29;100437.09;4977228;28;45222;-75
2023/06/09 03:36:40;;;;;;;;;25.00;24.33;;;;;22.17;50.98;100455.50;4959472;28;45702;-74
2023/06/09 03:39:06;;;;;;;;;25.33;23.33;;;;;22.17;50.79;100444.69;4959326;28;47337;-74
2023/06/09 03:41:34;;;;;;;;;25.67;25.33;;;;;22.05;50.81;100438.38;4978282;28;45312;-75
2023/06/09 03:43:59;;;;;;;;;24.33;22.67;;;;;22.10;51.19;100435.81;4980434;28;45480;-74
2023/06/09 03:46:25;;;;;;;;;20.67;20.67;;;;;22.16;51.11;100451.16;4980802;28;45388;-74
2023/06/09 03:48:51;;;;;;;;;24.67;24.33;;;;;21.98;51.11;100425.94;4998887;28;45644;-74
2023/06/09 03:51:17;;;;;;;;;26.33;25.00;;;;;22.01;51.32;100437.13;4981584;28;45539;-74
2023/06/09 03:53:42;;;;;;;;;26.00;22.33;;;;;21.97;51.17;100427.00;5000106;28;45331;-74
2023/06/09 03:56:07;;;;;;;;;25.00;23.67;;;;;22.00;51.85;100440.91;4999815;28;45504;-72
2023/06/09 03:58:33;;;;;;;;;23.00;21.67;;;;;21.60;51.86;100382.88;4982031;28;46922;-76
2023/06/09 04:00:59;;;;;;;;;23.33;23.00;;;;;21.90;51.73;100437.91;4999696;28;45250;-73
2023/06/09 04:03:24;;;;;;;;;25.00;23.33;;;;;21.90;51.81;100437.91;4999776;28;45351;-73
2023/06/09 04:05:50;;;;;;;;;23.67;21.67;;;;;21.88;52.12;100433.78;4999677;28;45259;-73
2023/06/09 04:08:15;;;;;;;;;23.67;22.00;;;;;21.83;51.77;100431.75;4999465;28;46297;-75
2023/06/09 04:10:41;;;;;;;;;23.67;23.67;;;;;21.91;52.27;100444.97;4998092;28;45264;-74
2023/06/09 04:13:08;;;;;;;;;25.67;23.67;;;;;21.83;51.78;100432.56;4999760;28;45259;-73
2023/06/09 04:15:33;;;;;;;;;24.33;23.33;;;;;21.81;51.82;100423.00;5000205;28;45928;-75
2023/06/09 04:17:59;;;;;;;;;23.33;23.33;;;;;21.58;51.70;100398.50;4970526;28;46110;-73
2023/06/09 04:20:25;;;;;;;;;23.67;23.00;;;;;21.90;51.96;100437.91;4979553;28;45586;-73
2023/06/09 04:22:51;;;;;;;;;24.00;18.67;;;;;21.92;51.64;100438.50;4979698;28;45417;-75
2023/06/09 04:25:19;;;;;;;;;25.00;25.00;;;;;21.86;51.74;100437.53;4979848;28;45957;-72
2023/06/09 04:27:45;;;;;;;;;22.67;21.67;;;;;21.90;52.11;100446.03;4961809;28;47712;-73
2023/06/09 04:30:11;;;;;;;;;26.33;23.67;;;;;21.87;51.84;100451.88;4979570;28;45425;-74
2023/06/09 04:32:37;;;;;;;;;24.33;22.00;;;;;21.89;51.67;100451.66;4979450;28;45285;-74
2023/06/09 04:35:03;;;;;;;;;22.00;21.00;;;;;21.90;51.73;100454.16;4962958;28;45584;-72
2023/06/09 04:37:30;;;;;;;;;27.00;23.00;;;;;21.89;51.36;100441.66;4979540;28;45799;-75
2023/06/09 04:39:55;;;;;;;;;22.33;21.33;;;;;21.93;51.28;100436.63;4961475;28;45485;-75
2023/06/09 04:42:22;;;;;;;;;23.67;21.67;;;;;22.01;50.68;100450.66;4980152;28;45496;-72
2023/06/09 04:44:49;;;;;;;;;24.67;22.67;;;;;21.59;50.71;100381.22;4979146;28;45691;-73
2023/06/09 04:47:19;;;;;;;;;22.00;21.00;;;;;21.99;50.69;100441.94;4978176;28;45298;-74
2023/06/09 04:49:46;;;;;;;;;23.67;21.33;;;;;22.01;50.64;100455.25;4979885;28;45463;-75
2023/06/09 04:52:12;;;;;;;;;23.00;20.33;;;;;21.96;50.42;100442.41;4977678;28;45436;-75
2023/06/09 04:54:38;;;;;;;;;20.33;19.33;;;;;22.05;50.72;100464.63;4961297;28;45652;-73
2023/06/09 04:57:05;;;;;;;;;23.00;21.33;;;;;22.08;50.35;100461.47;4979192;28;46350;-73
2023/06/09 04:59:31;;;;;;;;;22.00;20.33;;;;;22.02;50.37;100455.03;4979617;28;45441;-73
2023/06/09 05:01:57;;;;;;;;;23.33;21.33;;;;;22.12;50.25;100465.38;4979506;28;45342;-73
2023/06/09 05:04:23;;;;;;;;;21.33;21.33;;;;;21.98;50.15;100456.53;4961359;28;45499;-74
2023/06/09 05:06:48;;;;;;;;;23.33;19.67;;;;;22.07;50.50;100460.66;4978703;28;46580;-74
2023/06/09 05:09:14;;;;;;;;;23.67;23.33;;;;;22.05;50.26;100460.03;4978956;28;45424;-74
2023/06/09 05:11:39;;;;;;;;;25.00;19.67;;;;;21.72;50.21;100398.13;4980356;28;45516;-74
2023/06/09 05:14:07;;;;;;;;;26.33;24.33;;;;;21.97;49.82;100444.06;4961489;28;45599;-74
2023/06/09 05:16:34;;;;;;;;;27.33;25.00;;;;;22.11;50.34;100466.44;4979461;28;45464;-74
2023/06/09 05:19:00;;;;;;;;;21.67;21.67;;;;;22.11;49.97;100461.84;4980591;28;45885;-73
2023/06/09 05:21:26;;;;;;;;;27.00;25.33;;;;;22.13;50.03;100461.63;4979051;28;45539;-73
2023/06/09 05:23:51;;;;;;;;;23.67;21.00;;;;;22.17;49.87;100465.50;4961166;28;45509;-74
2023/06/09 05:26:17;;;;;;;;;29.33;25.33;;;;;22.16;49.97;100463.84;4959322;28;46246;-73
2023/06/09 05:28:43;;;;;;;;;26.67;24.33;;;;;22.22;49.67;100467.53;4959989;28;45429;-74
2023/06/09 05:31:09;;;;;;;;;23.00;22.67;;;;;21.88;49.36;100402.13;4959299;28;45307;-72
2023/06/09 05:33:36;;;;;;;;;26.00;24.67;;;;;22.31;49.29;100467.00;4941294;28;45477;-72
2023/06/09 05:36:01;;;;;;;;;20.67;20.67;;;;;22.05;49.28;100413.19;4959116;28;46858;-73
2023/06/09 05:38:27;;;;;;;;;22.00;22.00;;;;;22.36;48.68;100463.63;4957611;28;45436;-74
2023/06/09 05:40:52;;;;;;;;;16.00;16.00;;;;;22.44;48.40;100476.88;4966029;28;45566;-75
2023/06/09 05:43:18;;;;;;;;;20.67;20.67;;;;;22.53;49.04;100482.78;4959267;28;45249;-75
2023/06/09 05:45:43;;;;;;;;;20.33;18.67;;;;;22.59;48.35;100488.09;4962498;28;46249;-75
2023/06/09 05:48:08;;;;;;;;;22.00;21.00;;;;;22.63;48.34;100472.25;4986166;28;45212;-73
2023/06/09 05:50:34;;;;;;;;;23.33;22.00;;;;;22.47;47.90;100427.63;4976578;28;45543;-73
2023/06/09 05:52:59;;;;;;;;;21.67;21.67;;;;;22.92;47.59;100486.84;4978513;28;45441;-73
2023/06/09 05:55:25;;;;;;;;;19.67;18.00;;;;;23.01;47.37;100482.75;4977266;28;45444;-75
2023/06/09 05:57:51;;;;;;;;;24.67;22.67;;;;;23.02;46.75;100476.25;4978810;28;45327;-79
2023/06/09 06:00:17;;;;;;;;;18.67;18.33;;;;;22.99;47.14;100471.31;4974484;28;45339;-80
2023/06/09 06:02:44;;;;;;;;;26.33;25.00;;;;;23.21;46.99;100483.25;4978719;28;45572;-78
2023/06/09 06:05:10;;;;;;;;;22.67;21.33;;;;;23.35;46.89;100483.88;4978323;28;45740;-75
2023/06/09 06:07:36;;;;;;;;;26.67;22.67;;;;;23.60;46.41;100486.38;4978763;28;46417;-77
2023/06/09 06:10:06;;;;;;;;;25.67;24.00;;;;;23.80;45.66;100488.75;4978313;28;45508;-77
2023/06/09 06:12:34;;;;;;;;;21.67;20.33;;;;;24.01;45.25;100481.88;4976408;28;45539;-76
2023/06/09 06:14:59;;;;;;;;;23.67;21.67;;;;;24.03;44.46;100455.31;4972002;28;45760;-77
2023/06/09 06:17:25;;;;;;;;;19.67;19.00;;;;;24.32;44.02;100484.22;4969068;28;45509;-77
2023/06/09 06:19:51;;;;;;;;;22.00;20.67;;;;;24.41;43.74;100487.38;4972137;28;45605;-77
2023/06/09 06:22:16;;;;;;;;;21.00;21.00;;;;;24.50;43.85;100484.03;4980062;28;45361;-77
2023/06/09 06:24:41;;;;;;;;;19.33;18.33;;;;;24.61;43.07;100481.50;4976819;28;47205;-76
2023/06/09 06:27:07;;;;;;;;;21.33;20.33;;;;;24.68;43.30;100471.31;4988457;28;45405;-79
2023/06/09 06:29:33;;;;;;;;;21.00;19.67;;;;;24.75;42.81;100463.84;4996573;28;45297;-77
2023/06/09 06:31:59;;;;;;;;;20.67;18.33;;;;;24.97;42.95;100474.84;4979844;28;45512;-78
2023/06/09 06:34:25;;;;;;;;;19.33;18.33;;;;;24.95;42.12;100464.19;4978253;28;46390;-78
2023/06/09 06:36:51;;;;;;;;;21.00;20.67;;;;;25.06;42.10;100478.84;4967244;28;45604;-78
2023/06/09 06:39:16;;;;;;;;;17.00;17.00;;;;;25.00;41.91;100469.75;4969668;28;45418;-79
2023/06/09 06:41:41;;;;;;;;;17.33;16.33;;;;;25.04;41.86;100476.38;4977888;28;45353;-79
2023/06/09 06:44:07;;;;;;;;;20.00;17.00;;;;;24.95;42.32;100460.66;4959410;28;46756;-82
2023/06/09 06:46:32;;;;;;;;;16.67;15.33;;;;;25.15;41.73;100469.19;4977851;28;45343;-81
2023/06/09 06:48:57;;;;;;;;;19.00;18.00;;;;;25.10;41.89;100464.50;4957018;28;45489;-83
2023/06/09 06:51:23;;;;;;;;;20.00;19.00;;;;;25.30;41.68;100484.97;4957965;28;45486;-80
2023/06/09 06:53:48;;;;;;;;;18.67;18.67;;;;;25.34;41.64;100477.94;4968794;28;46110;-80
2023/06/09 06:56:14;;;;;;;;;20.00;18.33;;;;;25.43;41.94;100484.63;4975989;28;45661;-79
2023/06/09 06:58:40;;;;;;;;;17.00;16.67;;;;;25.59;41.25;100499.28;4978460;28;45467;-79
2023/06/09 07:01:05;;;;;;;;;17.00;17.00;;;;;25.47;41.18;100469.44;4979647;28;45287;-79
2023/06/09 07:03:33;;;;;;;;;24.00;20.33;;;;;25.70;40.94;100485.63;4976007;28;47116;-80
2023/06/09 07:05:58;;;;;;;;;21.33;19.33;;;;;25.74;41.09;100475.03;4965297;28;45382;-81
2023/06/09 07:08:23;;;;;;;;;22.00;20.67;;;;;25.91;40.80;100489.47;4985939;28;45357;-78
2023/06/09 07:10:49;;;;;;;;;18.00;18.00;;;;;25.92;40.73;100477.47;4961117;28;45256;-80
2023/06/09 07:13:15;;;;;;;;;18.33;18.00;;;;;25.99;40.48;100471.84;4979246;28;46004;-79
2023/06/09 07:15:40;;;;;;;;;15.67;15.67;;;;;26.07;41.05;100493.22;4962222;28;45710;-79
2023/06/09 07:18:06;;;;;;;;;21.33;21.33;;;;;26.09;40.38;100488.34;4982481;28;45563;-80
2023/06/09 07:20:32;;;;;;;;;21.33;19.00;;;;;26.03;40.63;100478.47;4991264;28;45252;-79
2023/06/09 07:22:58;;;;;;;;;21.33;18.00;;;;;25.76;40.48;100424.69;5002638;28;46753;-77
2023/06/09 07:25:23;;;;;;;;;21.33;18.33;;;;;26.09;40.70;100472.00;4983271;28;45716;-79
2023/06/09 07:27:49;;;;;;;;;20.00;19.67;;;;;26.23;40.49;100495.06;4976211;28;45522;-78
2023/06/09 07:30:14;;;;;;;;;19.67;18.00;;;;;26.26;40.25;100478.22;4982882;28;45405;-79
2023/06/09 07:32:40;;;;;;;;;20.00;20.00;;;;;26.01;40.16;100443.28;4972249;28;45559;-80
2023/06/09 07:35:05;;;;;;;;;20.67;19.67;;;;;26.41;40.22;100506.75;4981838;28;45317;-80
2023/06/09 07:37:31;;;;;;;;;20.33;20.33;;;;;26.27;40.06;100471.69;4966784;28;45512;-81
2023/06/09 07:39:56;;;;;;;;;20.00;20.00;;;;;26.17;39.89;100436.13;4960419;28;45481;-77
2023/06/09 07:42:23;;;;;;;;;24.00;20.67;;;;;26.58;40.10;100491.94;4966080;28;46976;-79
2023/06/09 07:44:49;;;;;;;;;15.67;15.67;;;;;26.72;40.45;100506.03;4977614;28;45297;-79
2023/06/09 07:47:14;;;;;;;;;18.33;18.33;;;;;26.75;39.63;100486.41;4978234;28;45678;-80
2023/06/09 07:49:40;;;;;;;;;18.00;17.00;;;;;26.83;39.81;100499.59;4986318;28;45556;-79
2023/06/09 07:52:06;;;;;;;;;15.33;14.00;;;;;26.57;39.62;100462.22;4981303;28;46927;-78
2023/06/09 07:54:35;;;;;;;;;16.00;14.33;;;;;26.92;39.80;100503.50;4984246;28;45495;-78
2023/06/09 07:57:01;;;;;;;;;16.33;15.00;;;;;26.93;39.63;100505.16;4968300;28;45400;-77
2023/06/09 07:59:26;;;;;;;;;20.33;18.67;;;;;27.02;39.83;100496.50;4975917;28;45342;-78
2023/06/09 08:01:52;;;;;;;;;18.00;16.67;;;;;26.81;39.25;100452.63;4982379;28;46058;-78
2023/06/09 08:04:17;;;;;;;;;24.33;20.00;;;;;27.02;39.13;100482.88;4982579;28;45380;-78
2023/06/09 08:06:44;;;;;;;;;17.33;17.33;;;;;27.11;39.56;100489.53;4965149;28;45788;-80
2023/06/09 08:09:09;;;;;;;;;18.33;18.33;;;;;27.20;39.26;100488.78;4983189;28;45505;-78
2023/06/09 08:11:34;;;;;;;;;21.00;18.33;;;;;27.24;38.80;100483.63;4983186;28;45647;-80
2023/06/09 08:14:00;;;;;;;;;20.67;19.67;;;;;27.38;38.87;100489.47;4984704;28;45849;-80
2023/06/09 08:16:25;;;;;;;;;22.00;20.33;;;;;27.42;38.53;100485.94;4966974;28;45431;-77
2023/06/09 08:18:51;;;;;;;;;19.33;17.33;;;;;27.07;38.81;100412.81;4968608;28;45467;-78
2023/06/09 08:21:17;;;;;;;;;17.67;17.67;;;;;27.50;38.65;100479.19;4948177;28;47567;-80
2023/06/09 08:23:44;;;;;;;;;17.33;14.33;;;;;27.54;38.96;100472.94;4978035;28;45231;-80
2023/06/09 08:26:09;;;;;;;;;20.00;18.33;;;;;27.33;38.63;100429.38;4985200;28;45371;-77
2023/06/09 08:28:35;;;;;;;;;21.33;21.33;;;;;27.70;38.42;100475.81;4979960;28;46187;-77
2023/06/09 08:31:00;;;;;;;;;19.33;18.00;;;;;27.76;39.11;100463.81;4974109;28;47819;-72
2023/06/09 08:33:28;;;;;;;;;21.33;19.00;;;;;27.91;38.57;100468.56;4968664;28;45266;-74
2023/06/09 08:35:53;;;;;;;;;24.00;20.00;;;;;28.00;38.17;100451.38;4961129;28;45394;-74
2023/06/09 08:38:18;;;;;;;;;19.33;19.33;;;;;28.05;37.34;100456.88;4977291;28;46378;-74
2023/06/09 08:40:45;;;;;;;;;22.00;19.00;;;;;28.21;37.30;100455.00;4978692;28;53778;-74
2023/06/09 08:43:10;;;;;;;;;16.67;16.33;;;;;28.22;37.03;100439.44;4972266;28;45544;-73
2023/06/09 08:45:40;;;;;;;;;19.67;17.33;;;;;28.33;36.96;100452.09;4959814;28;45444;-72
2023/06/09 08:48:09;;;;;;;;;17.00;17.00;;;;;28.18;36.09;100403.59;4978788;28;45595;-75
2023/06/09 08:50:41;;;;;;;;;20.67;19.67;;;;;28.51;36.07;100459.78;4978059;28;45772;-74
2023/06/09 08:53:08;;;;;;;;;17.67;17.67;;;;;28.50;34.96;100451.88;4977312;28;45378;-72
2023/06/09 08:55:33;;;;;;;;;19.33;18.33;;;;;28.35;35.48;100439.78;4977721;28;45433;-74
2023/06/09 08:57:59;;;;;;;;;17.33;17.33;;;;;28.43;35.78;100446.63;4978805;28;45514;-71
2023/06/09 09:00:25;;;;;;;;;22.00;20.00;;;;;28.35;35.48;100430.75;4978019;28;45501;-73
2023/06/09 09:02:51;;;;;;;;;21.33;18.00;;;;;28.16;35.80;100401.16;4977767;28;45305;-72
2023/06/09 09:05:16;;;;;;;;;18.33;18.33;;;;;28.48;35.63;100428.34;4977661;28;45365;-71
2023/06/09 09:07:44;;;;;;;;;17.67;16.00;;;;;28.50;35.82;100417.13;4977291;28;45452;-71
2023/06/09 09:10:10;;;;;;;;;14.00;14.00;;;;;28.76;36.55;100440.69;4958419;28;47543;-73
2023/06/09 09:12:50;;;;;;;;;21.00;19.00;;;;;28.82;36.20;100443.44;4977766;28;45567;-71
2023/06/09 09:15:16;;;;;;;;;17.00;17.00;;;;;28.97;35.88;100451.69;4978654;28;45417;-74
2023/06/09 09:17:41;;;;;;;;;18.67;18.33;;;;;29.01;35.17;100448.13;4978282;28;45370;-73
2023/06/09 09:20:07;;;;;;;;;18.33;18.00;;;;;29.01;34.57;100448.13;4959671;28;46132;-75
2023/06/09 09:22:48;;;;;;;;;21.67;20.67;;;;;28.91;34.85;100430.88;4956568;28;45460;-73
2023/06/09 09:25:28;;;;;;;;;18.67;18.67;;;;;28.99;34.90;100446.75;4974588;28;45464;-74
2023/06/09 09:28:12;;;;;;;;;16.67;16.67;;;;;29.03;34.04;100435.00;4968990;28;45580;-72
2023/06/09 09:30:41;;;;;;;;;17.33;17.33;;;;;28.92;34.16;100416.13;4976478;28;48090;-72
2023/06/09 09:33:11;;;;;;;;;16.67;16.67;;;;;28.94;34.99;100420.22;4977917;28;45536;-72
2023/06/09 09:35:38;;;;;;;;;21.33;20.00;;;;;29.04;34.73;100425.72;4976964;28;45499;-76
2023/06/09 09:38:05;;;;;;;;;17.67;17.67;;;;;29.02;34.99;100416.09;4973191;28;45596;-73
2023/06/09 09:40:30;;;;;;;;;21.00;17.00;;;;;29.01;34.94;100420.75;4986672;28;46819;-73
2023/06/09 09:43:00;;;;;;;;;20.33;19.67;;;;;29.00;34.56;100421.84;4976520;28;64742;-74
2023/06/09 09:45:27;;;;;;;;;20.33;19.33;;;;;29.02;34.69;100424.31;4978119;28;45373;-72
2023/06/09 09:47:52;;;;;;;;;21.00;19.33;;;;;28.95;34.38;100427.31;4960261;28;45548;-72
2023/06/09 09:50:24;;;;;;;;;22.67;18.67;;;;;28.95;34.86;100410.09;4977341;28;45577;-73
2023/06/09 09:52:50;;;;;;;;;19.67;18.00;;;;;28.96;35.19;100422.69;4977918;28;45347;-73
2023/06/09 09:55:16;;;;;;;;;16.33;16.33;;;;;28.99;34.94;100416.66;4975398;28;45570;-75
2023/06/09 09:57:42;;;;;;;;;16.33;16.33;;;;;28.92;34.06;100410.63;4959894;28;45472;-73
2023/06/09 10:00:12;;;;;;;;;18.33;16.00;;;;;28.98;34.63;100420.47;4975250;28;46392;-75
2023/06/09 10:02:42;;;;;;;;;16.67;16.00;;;;;28.95;33.70;100402.69;4960611;28;45467;-75
2023/06/09 10:05:10;;;;;;;;;19.00;16.00;;;;;28.83;33.54;100374.75;4966610;28;45559;-72
2023/06/09 10:07:40;;;;;;;;;18.33;17.00;;;;;29.07;33.72;100405.16;4961859;28;45481;-73
2023/06/09 10:10:08;;;;;;;;;16.67;16.67;;;;;29.07;33.29;100405.16;4951002;28;47648;-73
2023/06/09 10:12:36;;;;;;;;;22.67;22.00;;;;;28.96;34.24;100400.78;4978466;28;45512;-73
2023/06/09 10:15:02;;;;;;;;;21.00;20.00;;;;;28.97;34.19;100397.78;4978402;28;45385;-72
2023/06/09 10:17:28;;;;;;;;;15.67;15.67;;;;;28.96;33.74;100398.03;4978094;28;45346;-72
2023/06/09 10:19:56;;;;;;;;;18.67;17.33;;;;;28.93;33.40;100401.34;4977527;28;45654;-74
2023/06/09 10:22:23;;;;;;;;;16.33;15.33;;;;;28.95;34.23;100399.16;4959879;28;46123;-74
2023/06/09 10:24:49;;;;;;;;;16.33;15.33;;;;;29.01;33.95;100411.72;4977217;28;45549;-74
2023/06/09 10:27:14;;;;;;;;;26.33;21.00;;;;;28.83;34.18;100373.91;4961285;28;45464;-76
2023/06/09 10:29:40;;;;;;;;;17.33;17.00;;;;;29.01;34.00;100407.06;4977831;28;45924;-73
2023/06/09 10:32:10;;;;;;;;;16.00;13.33;;;;;28.95;32.46;100407.34;4977206;28;45461;-74
2023/06/09 10:34:38;;;;;;;;;17.00;17.00;;;;;28.88;33.17;100382.19;4977107;28;45468;-74
2023/06/09 10:37:04;;;;;;;;;16.00;14.33;;;;;29.02;33.27;100407.88;4959794;28;45406;-74
2023/06/09 10:39:52;;;;;;;;;17.67;17.67;;;;;28.95;33.18;100388.19;4973905;28;46665;-74
2023/06/09 10:42:39;;;;;;;;;16.00;16.00;;;;;29.00;32.69;100408.16;4977206;28;45457;-75
2023/06/09 10:45:13;;;;;;;;;16.67;16.67;;;;;28.86;33.55;100378.91;4960281;28;45259;-73
2023/06/09 10:47:46;;;;;;;;;16.33;16.00;;;;;28.92;33.81;100386.00;4977727;28;45318;-75
2023/06/09 10:50:26;;;;;;;;;18.00;18.00;;;;;28.94;34.17;100395.59;4955273;28;46431;-73
2023/06/09 10:52:58;;;;;;;;;21.67;18.33;;;;;28.97;32.68;100394.22;4957406;28;45315;-72
2023/06/09 10:55:28;;;;;;;;;17.00;15.00;;;;;29.01;33.84;100403.50;4967024;28;45363;-73
2023/06/09 10:57:55;;;;;;;;;18.67;15.33;;;;;28.70;33.35;100342.47;4977702;28;45323;-73
2023/06/09 11:00:22;;;;;;;;;16.00;14.50;;;;;28.99;33.19;100384.63;4973523;28;47864;-73
2023/06/09 11:03:08;;;;;;;;;18.67;17.33;;;;;28.95;33.21;100382.72;4959196;28;45507;-76
2023/06/09 11:05:41;;;;;;;;;18.67;15.00;;;;;29.01;33.41;100404.31;4949185;28;45328;-76
2023/06/09 11:08:07;;;;;;;;;18.33;18.33;;;;;28.74;32.91;100360.81;4940244;28;45477;-76
2023/06/09 11:10:35;;;;;;;;;14.67;13.67;;;;;29.03;32.36;100401.31;4974925;28;49155;-74